Bondar 95 — FM3971 — position and weather

sailwx.info

Track history (hours):
 
Tides and Currents Weather Stations Pressure Air Temp Water Temp Dewpoint Dewpoint Depression Visibility Wind Speed Wind Dir Waves Ship Positions

Bondar 95

Last reported at 2017-Dec-10 10:07 UTC. Time now 2017-Dec-15 21:43 UTC.
Position N 44°17' E 028°05'.

Length 213 m; draft 0.3 m.

Type: Ship. MMSI: 227133971.

Date/timePositionNaut miles runAvg speedWind from/ knotsBaromVisibWave heightAir tempDewpointWater temp
2017-Dec-10 10:07N 44°17' E 028°05'1 8.6
2017-Dec-10 10:00N 44°16' E 028°06'4 7.6
2017-Dec-10 09:30N 44°16' E 028°11'4 8.0
2017-Dec-10 09:00N 44°15' E 028°17'4 7.9
2017-Dec-10 08:30N 44°14' E 028°22'0 0.4
2017-Dec-10 08:00N 44°14' E 028°22'0 0.0
2017-Dec-10 07:30N 44°14' E 028°22'0 0.0
2017-Dec-10 07:00N 44°14' E 028°22'0 0.0
2017-Dec-10 06:30N 44°14' E 028°22'0 0.0
2017-Dec-10 06:00N 44°14' E 028°22'3 4.9
2017-Dec-10 05:27N 44°11' E 028°24'7 6.2
2017-Dec-10 04:20N 44°06' E 028°30'2 6.9
2017-Dec-10 03:59N 44°06' E 028°34'3 5.6
2017-Dec-10 03:30N 44°06' E 028°37'0 0.0
2017-Dec-10 03:00N 44°06' E 028°37'0 0.0
2017-Dec-10 02:30N 44°06' E 028°37'0 0.0
2017-Dec-10 02:00N 44°06' E 028°37'0 0.0
2017-Dec-10 01:30N 44°06' E 028°37'0 0.0
2017-Dec-10 01:00N 44°06' E 028°37'0 0.0
2017-Dec-10 00:30N 44°06' E 028°37'0 0.0
2017-Dec-10 00:00N 44°06' E 028°37'0 0.8
2017-Dec-09 23:30N 44°06' E 028°38'1 1.7
2017-Dec-09 23:00N 44°06' E 028°39'1 1.3
2017-Dec-09 22:30N 44°07' E 028°39'0 0.0
2017-Dec-09 22:00N 44°07' E 028°39'1 1.2
2017-Dec-09 21:30N 44°08' E 028°39'2 3.7
2017-Dec-09 21:00N 44°09' E 028°39'0 0.3
2017-Dec-09 20:30N 44°09' E 028°39'0 0.3
2017-Dec-09 20:00N 44°09' E 028°39'0 0.0
2017-Dec-09 19:30N 44°09' E 028°39'0 0.0
2017-Dec-09 19:00N 44°09' E 028°39'0 0.0
2017-Dec-09 18:30N 44°09' E 028°39'0 0.0
2017-Dec-09 18:00N 44°09' E 028°39'0 0.0
2017-Dec-09 17:30N 44°09' E 028°39'1 2.6
2017-Dec-09 17:00N 44°08' E 028°39'0 0.5
2017-Dec-09 16:30N 44°08' E 028°39'1 2.8
2017-Dec-09 16:00N 44°09' E 028°39'0 0.0
2017-Dec-09 15:30N 44°09' E 028°39'0 0.0
2017-Dec-09 15:00N 44°09' E 028°39'0 0.0
2017-Dec-09 14:30N 44°09' E 028°39'0 0.0
2017-Dec-09 14:00N 44°09' E 028°39'0 0.0
2017-Dec-09 13:30N 44°09' E 028°39'0 0.0
2017-Dec-09 13:00N 44°09' E 028°39'0 0.3
2017-Dec-09 12:30N 44°09' E 028°39'0 0.0
2017-Dec-09 12:00N 44°09' E 028°39'0 0.0
2017-Dec-09 11:30N 44°09' E 028°39'0 0.0
2017-Dec-09 11:00N 44°09' E 028°39'0 0.0
2017-Dec-09 10:30N 44°09' E 028°39'0 0.3
2017-Dec-09 10:00N 44°09' E 028°39'0 0.0
2017-Dec-09 09:30N 44°09' E 028°39'0 0.0
2017-Dec-09 09:00N 44°09' E 028°39'0 0.0
2017-Dec-09 08:30N 44°09' E 028°39'0 0.0
2017-Dec-09 08:00N 44°09' E 028°39'0 0.0
2017-Dec-09 07:30N 44°09' E 028°39'0 0.0
2017-Dec-09 07:00N 44°09' E 028°39'0 0.0
2017-Dec-09 06:30N 44°09' E 028°39'0 0.0
2017-Dec-09 06:00N 44°09' E 028°39'0 0.0
2017-Dec-09 05:30N 44°09' E 028°39'0 0.0
2017-Dec-09 05:00N 44°09' E 028°39'0 0.0
2017-Dec-09 04:30N 44°09' E 028°39'0 0.3
2017-Dec-09 04:00N 44°09' E 028°39'0 0.3
2017-Dec-09 03:30N 44°09' E 028°39'2 3.6
2017-Dec-09 03:00N 44°08' E 028°39'1 1.7
2017-Dec-09 02:30N 44°08' E 028°39'1 2.3
2017-Dec-09 02:00N 44°09' E 028°39'0 0.0
2017-Dec-09 01:30N 44°09' E 028°39'0 0.0
2017-Dec-09 01:00N 44°09' E 028°39'0 0.0
2017-Dec-09 00:30N 44°09' E 028°39'0 0.0
2017-Dec-09 00:00N 44°09' E 028°39'0 0.0
2017-Dec-08 23:30N 44°09' E 028°39'0 0.0
2017-Dec-08 23:00N 44°09' E 028°39'0 0.0
2017-Dec-08 22:30N 44°09' E 028°39'0 0.0
2017-Dec-08 22:00N 44°09' E 028°39'0 0.0
2017-Dec-08 21:30N 44°09' E 028°39'0 0.3
2017-Dec-08 21:00N 44°09' E 028°39'0 0.0
2017-Dec-08 20:30N 44°09' E 028°39'0 0.3
2017-Dec-08 20:00N 44°09' E 028°39'0 0.0
2017-Dec-08 19:30N 44°09' E 028°39'0 0.0
2017-Dec-08 19:00N 44°09' E 028°39'0 0.7
2017-Dec-08 18:30N 44°09' E 028°40'2 4.3
2017-Dec-08 18:00N 44°07' E 028°39'1 1.1
2017-Dec-08 17:30N 44°08' E 028°39'2 3.3
2017-Dec-08 17:00N 44°09' E 028°39'1 2.0
2017-Dec-08 16:30N 44°09' E 028°40'2 3.3
2017-Dec-08 16:00N 44°07' E 028°39'2 4.5
2017-Dec-08 15:30N 44°09' E 028°39'0 0.6
2017-Dec-08 15:00N 44°09' E 028°39'0 0.1
2017-Dec-08 14:30N 44°09' E 028°39'0 0.0
2017-Dec-08 14:00N 44°09' E 028°39'0 0.0
2017-Dec-08 13:30N 44°09' E 028°39'0 0.0
2017-Dec-08 13:00N 44°09' E 028°39'0 0.0
2017-Dec-08 12:30N 44°09' E 028°39'0 0.0
2017-Dec-08 12:00N 44°09' E 028°39'0 0.1
2017-Dec-08 11:30N 44°09' E 028°39'1 2.0
2017-Dec-08 11:01N 44°09' E 028°40'2 3.2
2017-Dec-08 10:30N 44°07' E 028°39'0 0.0
2017-Dec-08 10:00N 44°07' E 028°39'0 0.0
2017-Dec-08 09:30N 44°07' E 028°39'0 0.0
2017-Dec-08 09:00N 44°07' E 028°39'0 0.0
2017-Dec-08 08:31N 44°07' E 028°39'0 0.0
2017-Dec-08 08:00N 44°07' E 028°39'0 0.0
2017-Dec-08 07:31N 44°07' E 028°39'0 0.0
2017-Dec-08 07:01N 44°07' E 028°39'0 0.2
2017-Dec-08 06:31N 44°07' E 028°39'0 0.1
2017-Dec-08 06:00N 44°07' E 028°39'0 0.4
2017-Dec-08 05:31N 44°07' E 028°39'1 2.9
2017-Dec-08 05:01N 44°06' E 028°38'1 1.4
2017-Dec-08 04:31N 44°06' E 028°37'1 1.3
2017-Dec-08 04:00N 44°06' E 028°36'3 5.4
2017-Dec-08 03:30N 44°06' E 028°32'6 4.6
2017-Dec-08 02:13N 44°09' E 028°26'1 5.4
2017-Dec-08 02:00N 44°10' E 028°25'3 5.2
2017-Dec-08 01:30N 44°13' E 028°23'3 5.4
2017-Dec-08 01:00N 44°15' E 028°21'3 5.4
2017-Dec-08 00:30N 44°15' E 028°17'3 5.4
2017-Dec-08 00:00N 44°15' E 028°14'3 5.2
2017-Dec-07 23:31N 44°16' E 028°10'3 5.4
2017-Dec-07 23:01N 44°16' E 028°06'  
2017-Dec-04 10:24N 44°09' E 028°39'0 0.0
2017-Dec-04 09:53N 44°09' E 028°39'0 0.0
2017-Dec-04 09:30N 44°09' E 028°39'0 0.0
2017-Dec-04 09:00N 44°09' E 028°39'0 0.0
2017-Dec-04 08:29N 44°09' E 028°39'0 0.0
2017-Dec-04 07:59N 44°09' E 028°39'0 0.0
2017-Dec-04 07:28N 44°09' E 028°39'0 0.0
2017-Dec-04 07:00N 44°09' E 028°39'0 0.0
2017-Dec-04 06:27N 44°09' E 028°39'0 0.0
2017-Dec-04 05:58N 44°09' E 028°39'0 0.0
2017-Dec-04 05:29N 44°09' E 028°39'0 0.0
2017-Dec-04 04:58N 44°09' E 028°39'0 0.0
2017-Dec-04 04:29N 44°09' E 028°39'0 0.0
2017-Dec-04 03:59N 44°09' E 028°39'0 0.0
2017-Dec-04 03:30N 44°09' E 028°39'0 0.0
2017-Dec-04 02:56N 44°09' E 028°39'0 0.0
2017-Dec-04 02:29N 44°09' E 028°39'0 0.0
2017-Dec-04 01:56N 44°09' E 028°39'0 0.0
2017-Dec-04 01:30N 44°09' E 028°39'0 0.0
2017-Dec-04 00:58N 44°09' E 028°39'0 0.0
2017-Dec-04 00:30N 44°09' E 028°39'0 0.0
2017-Dec-04 00:00N 44°09' E 028°39'0 0.0
2017-Dec-03 23:30N 44°09' E 028°39'0 0.0
2017-Dec-03 22:55N 44°09' E 028°39'0 0.0
2017-Dec-03 22:28N 44°09' E 028°39'0 0.0
2017-Dec-03 21:59N 44°09' E 028°39'0 0.0
2017-Dec-03 21:30N 44°09' E 028°39'0 0.0
2017-Dec-03 20:59N 44°09' E 028°39'0 0.0
2017-Dec-03 20:29N 44°09' E 028°39'0 0.0
2017-Dec-03 19:59N 44°09' E 028°39'0 0.0
2017-Dec-03 19:29N 44°09' E 028°39'0 0.0
2017-Dec-03 18:53N 44°09' E 028°39'0 0.0
2017-Dec-03 18:29N 44°09' E 028°39'0 0.0
2017-Dec-03 17:58N 44°09' E 028°39'0 0.0
2017-Dec-03 17:30N 44°09' E 028°39'0 0.0
2017-Dec-03 16:53N 44°09' E 028°39'0 0.0
2017-Dec-03 16:29N 44°09' E 028°39'0 0.0
2017-Dec-03 16:00N 44°09' E 028°39'0 0.0
2017-Dec-03 15:30N 44°09' E 028°39'0 0.0
2017-Dec-03 14:53N 44°09' E 028°39'0 0.0
2017-Dec-03 14:29N 44°09' E 028°39'0 0.0
2017-Dec-03 13:58N 44°09' E 028°39'0 0.0
2017-Dec-03 13:30N 44°09' E 028°39'0 0.0
2017-Dec-03 13:00N 44°09' E 028°39'0 0.5
2017-Dec-03 12:30N 44°09' E 028°40'2 4.2
2017-Dec-03 12:00N 44°07' E 028°39'0 0.0
2017-Dec-03 11:29N 44°07' E 028°39'0 0.0
2017-Dec-03 10:59N 44°07' E 028°39'0 0.0
2017-Dec-03 10:30N 44°07' E 028°39'0 0.0
2017-Dec-03 10:00N 44°07' E 028°39'0 0.0
2017-Dec-03 09:31N 44°07' E 028°39'2 3.7
2017-Dec-03 08:58N 44°09' E 028°39'0 0.0
2017-Dec-03 08:30N 44°09' E 028°39'0 0.0
2017-Dec-03 07:59N 44°09' E 028°39'0 0.0
2017-Dec-03 07:28N 44°09' E 028°39'0 0.0
2017-Dec-03 06:59N 44°09' E 028°39'0 0.0
2017-Dec-03 06:28N 44°09' E 028°39'0 0.0
2017-Dec-03 05:58N 44°09' E 028°39'0 0.0
2017-Dec-03 05:29N 44°09' E 028°39'0 0.0
2017-Dec-03 05:00N 44°09' E 028°39'0 0.0
2017-Dec-03 04:28N 44°09' E 028°39'0 0.0
2017-Dec-03 03:59N 44°09' E 028°39'0 0.0
2017-Dec-03 03:30N 44°09' E 028°39'0 0.0
2017-Dec-03 02:59N 44°09' E 028°39'0 0.0
2017-Dec-03 02:28N 44°09' E 028°39'0 0.0
2017-Dec-03 01:56N 44°09' E 028°39'0 0.0
2017-Dec-03 01:30N 44°09' E 028°39'0 0.0
2017-Dec-03 01:00N 44°09' E 028°39'0 0.0
2017-Dec-03 00:28N 44°09' E 028°39'0 0.0
2017-Dec-03 00:00N 44°09' E 028°39'0 0.0
2017-Dec-02 23:24N 44°09' E 028°39'0 0.0
2017-Dec-02 22:53N 44°09' E 028°39'0 0.0
2017-Dec-02 22:28N 44°09' E 028°39'0 0.0
2017-Dec-02 21:54N 44°09' E 028°39'0 0.0
2017-Dec-02 21:27N 44°09' E 028°39'0 0.0
2017-Dec-02 20:58N 44°09' E 028°39'0 0.0
2017-Dec-02 20:30N 44°09' E 028°39'0 0.0
2017-Dec-02 19:58N 44°09' E 028°39'0 0.0
2017-Dec-02 19:30N 44°09' E 028°39'0 0.0
2017-Dec-02 18:53N 44°09' E 028°39'0 0.0
2017-Dec-02 18:30N 44°09' E 028°39'0 0.0
2017-Dec-02 17:58N 44°09' E 028°39'0 0.0
2017-Dec-02 17:30N 44°09' E 028°39'0 0.0
2017-Dec-02 16:53N 44°09' E 028°39'0 0.0
2017-Dec-02 16:28N 44°09' E 028°39'0 0.0
2017-Dec-02 16:00N 44°09' E 028°39'0 0.0
2017-Dec-02 15:28N 44°09' E 028°39'0 0.0
2017-Dec-02 15:00N 44°09' E 028°39'0 0.0
2017-Dec-02 14:28N 44°09' E 028°39'0 0.0
2017-Dec-02 14:00N 44°09' E 028°39'0 0.0
2017-Dec-02 13:30N 44°09' E 028°39'0 0.0
2017-Dec-02 12:58N 44°09' E 028°39'0 0.0
2017-Dec-02 12:30N 44°09' E 028°39'0 0.0
2017-Dec-02 11:59N 44°09' E 028°39'0 0.0
2017-Dec-02 11:25N 44°09' E 028°39'0 0.0
2017-Dec-02 10:59N 44°09' E 028°39'0 0.0
2017-Dec-02 10:23N 44°09' E 028°39'0 0.0
2017-Dec-02 10:00N 44°09' E 028°39'0 0.0
2017-Dec-02 09:25N 44°09' E 028°39'0 0.1
2017-Dec-02 08:58N 44°09' E 028°39'0 0.0
2017-Dec-02 08:30N 44°09' E 028°39'0 0.0
2017-Dec-02 07:59N 44°09' E 028°39'0 0.0
2017-Dec-02 07:27N 44°09' E 028°39'0 0.0
2017-Dec-02 07:00N 44°09' E 028°39'0 0.0
2017-Dec-02 06:28N 44°09' E 028°39'0 0.0
2017-Dec-02 05:58N 44°09' E 028°39'0 0.0
2017-Dec-02 05:24N 44°09' E 028°39'0 0.0
2017-Dec-02 04:56N 44°09' E 028°39'0 0.0
2017-Dec-02 04:28N 44°09' E 028°39'0 0.0
2017-Dec-02 03:58N 44°09' E 028°39'0 0.0
2017-Dec-02 03:24N 44°09' E 028°39'0 0.0
2017-Dec-02 03:00N 44°09' E 028°39'0 0.0
2017-Dec-02 02:28N 44°09' E 028°39'0 0.0
2017-Dec-02 01:59N 44°09' E 028°39'0 0.0
2017-Dec-02 01:27N 44°09' E 028°39'0 0.0
2017-Dec-02 00:57N 44°09' E 028°39'0 0.0
2017-Dec-02 00:29N 44°09' E 028°39'0 0.0
2017-Dec-01 23:57N 44°09' E 028°39'0 0.0
2017-Dec-01 23:29N 44°09' E 028°39'0 0.0
2017-Dec-01 22:59N 44°09' E 028°39'0 0.0
2017-Dec-01 22:30N 44°09' E 028°39'0 0.0
2017-Dec-01 22:00N 44°09' E 028°39'0 0.0
2017-Dec-01 21:30N 44°09' E 028°39'0 0.0
2017-Dec-01 20:59N 44°09' E 028°39'0 0.0
2017-Dec-01 20:29N 44°09' E 028°39'0 0.0
2017-Dec-01 19:58N 44°09' E 028°39'0 0.0
2017-Dec-01 19:30N 44°09' E 028°39'0 0.0
2017-Dec-01 18:54N 44°09' E 028°39'0 0.0
2017-Dec-01 18:28N 44°09' E 028°39'0 0.0
2017-Dec-01 17:58N 44°09' E 028°39'0 0.0
2017-Dec-01 17:29N 44°09' E 028°39'0 0.0
2017-Dec-01 16:59N 44°09' E 028°39'0 0.0
2017-Dec-01 16:29N 44°09' E 028°39'0 0.0
2017-Dec-01 16:00N 44°09' E 028°39'0 0.0
2017-Dec-01 15:28N 44°09' E 028°39'0 0.0
2017-Dec-01 14:54N 44°09' E 028°39'0 0.0
2017-Dec-01 14:29N 44°09' E 028°39'0 0.0
2017-Dec-01 13:59N 44°09' E 028°39'0 0.0
2017-Dec-01 13:30N 44°09' E 028°39'0 0.0
2017-Dec-01 12:58N 44°09' E 028°39'0 0.0
2017-Dec-01 12:30N 44°09' E 028°39'0 0.0
2017-Dec-01 11:58N 44°09' E 028°39'0 0.0
2017-Dec-01 11:30N 44°09' E 028°39'0 0.0
2017-Dec-01 10:59N 44°09' E 028°39'1 1.5
2017-Dec-01 10:31N 44°09' E 028°40'2 3.4
2017-Dec-01 09:59N 44°07' E 028°39'0 0.0
2017-Dec-01 09:30N 44°07' E 028°39'0 0.0
2017-Dec-01 09:00N 44°07' E 028°39'0 0.0
2017-Dec-01 08:28N 44°07' E 028°39'0 0.0
2017-Dec-01 08:00N 44°07' E 028°39'0 0.0
2017-Dec-01 07:29N 44°07' E 028°39'0 0.0
2017-Dec-01 06:58N 44°07' E 028°39'0 0.0
2017-Dec-01 06:29N 44°07' E 028°39'0 0.0
2017-Dec-01 05:58N 44°07' E 028°39'0 0.0
2017-Dec-01 05:30N 44°07' E 028°39'0 0.0
2017-Dec-01 04:59N 44°07' E 028°39'0 0.0
2017-Dec-01 04:29N 44°07' E 028°39'0 0.0
2017-Dec-01 04:00N 44°07' E 028°39'0 0.0
2017-Dec-01 03:30N 44°07' E 028°39'0 0.0
2017-Dec-01 02:58N 44°07' E 028°39'0 0.0
2017-Dec-01 02:29N 44°07' E 028°39'0 0.0
2017-Dec-01 02:00N 44°07' E 028°39'0 0.0
2017-Dec-01 01:25N 44°07' E 028°39'0 0.0
2017-Dec-01 01:00N 44°07' E 028°39'0 0.0
2017-Dec-01 00:30N 44°07' E 028°39'0 0.0
2017-Nov-30 23:59N 44°07' E 028°39'0 0.0
2017-Nov-30 23:29N 44°07' E 028°39'0 0.0
2017-Nov-30 22:54N 44°07' E 028°39'0 0.0
2017-Nov-30 22:30N 44°07' E 028°39'0 0.0
2017-Nov-30 22:00N 44°07' E 028°39'0 0.0
2017-Nov-30 21:24N 44°07' E 028°39'0 0.0
2017-Nov-30 21:00N 44°07' E 028°39'0 0.0
2017-Nov-30 20:30N 44°07' E 028°39'0 0.0
2017-Nov-30 20:00N 44°07' E 028°39'0 0.0
2017-Nov-30 19:28N 44°07' E 028°39'0 0.0
2017-Nov-30 18:59N 44°07' E 028°39'0 0.0
2017-Nov-30 18:29N 44°07' E 028°39'0 0.0
2017-Nov-30 17:58N 44°07' E 028°39'0 0.0
2017-Nov-30 17:30N 44°07' E 028°39'0 0.0
2017-Nov-30 16:58N 44°07' E 028°39'0 0.0
2017-Nov-30 16:28N 44°07' E 028°39'0 0.0
2017-Nov-30 16:00N 44°07' E 028°39'0 0.0
2017-Nov-30 15:30N 44°07' E 028°39'1 2.3
2017-Nov-30 15:00N 44°06' E 028°38'1 2.3
2017-Nov-30 14:30N 44°07' E 028°39'0 0.0
2017-Nov-30 13:59N 44°07' E 028°39'1 1.7
2017-Nov-30 13:30N 44°08' E 028°39'2 3.0
2017-Nov-30 12:59N 44°09' E 028°39'0 0.0
2017-Nov-30 12:30N 44°09' E 028°39'0 0.0
2017-Nov-30 12:00N 44°09' E 028°39'0 0.7
2017-Nov-30 11:28N 44°09' E 028°39'0 0.0
2017-Nov-30 10:58N 44°09' E 028°39'0 0.0
2017-Nov-30 10:28N 44°09' E 028°39'  
Track history (hours):
 
Tides and Currents Weather Stations Pressure Air Temp Water Temp Dewpoint Dewpoint Depression Visibility Wind Speed Wind Dir Waves Ship Positions

Bondar 95

Last reported at 2017-Dec-10 10:07 UTC. Time now 2017-Dec-15 21:43 UTC.
Position N 44°17' E 028°05'.

Length 213 m; draft 0.3 m.

Type: Ship. MMSI: 227133971.

Date/timePositionNaut miles runAvg speedWind from/ knotsBaromVisibWave heightAir tempDewpointWater temp
2017-Dec-10 10:07N 44°17' E 028°05'1 8.6
2017-Dec-10 10:00N 44°16' E 028°06'4 7.6
2017-Dec-10 09:30N 44°16' E 028°11'4 8.0
2017-Dec-10 09:00N 44°15' E 028°17'4 7.9
2017-Dec-10 08:30N 44°14' E 028°22'0 0.4
2017-Dec-10 08:00N 44°14' E 028°22'0 0.0
2017-Dec-10 07:30N 44°14' E 028°22'0 0.0
2017-Dec-10 07:00N 44°14' E 028°22'0 0.0
2017-Dec-10 06:30N 44°14' E 028°22'0 0.0
2017-Dec-10 06:00N 44°14' E 028°22'3 4.9
2017-Dec-10 05:27N 44°11' E 028°24'7 6.2
2017-Dec-10 04:20N 44°06' E 028°30'2 6.9
2017-Dec-10 03:59N 44°06' E 028°34'3 5.6
2017-Dec-10 03:30N 44°06' E 028°37'0 0.0
2017-Dec-10 03:00N 44°06' E 028°37'0 0.0
2017-Dec-10 02:30N 44°06' E 028°37'0 0.0
2017-Dec-10 02:00N 44°06' E 028°37'0 0.0
2017-Dec-10 01:30N 44°06' E 028°37'0 0.0
2017-Dec-10 01:00N 44°06' E 028°37'0 0.0
2017-Dec-10 00:30N 44°06' E 028°37'0 0.0
2017-Dec-10 00:00N 44°06' E 028°37'0 0.8
2017-Dec-09 23:30N 44°06' E 028°38'1 1.7
2017-Dec-09 23:00N 44°06' E 028°39'1 1.3
2017-Dec-09 22:30N 44°07' E 028°39'0 0.0
2017-Dec-09 22:00N 44°07' E 028°39'1 1.2
2017-Dec-09 21:30N 44°08' E 028°39'2 3.7
2017-Dec-09 21:00N 44°09' E 028°39'0 0.3
2017-Dec-09 20:30N 44°09' E 028°39'0 0.3
2017-Dec-09 20:00N 44°09' E 028°39'0 0.0
2017-Dec-09 19:30N 44°09' E 028°39'0 0.0
2017-Dec-09 19:00N 44°09' E 028°39'0 0.0
2017-Dec-09 18:30N 44°09' E 028°39'0 0.0
2017-Dec-09 18:00N 44°09' E 028°39'0 0.0
2017-Dec-09 17:30N 44°09' E 028°39'1 2.6
2017-Dec-09 17:00N 44°08' E 028°39'0 0.5
2017-Dec-09 16:30N 44°08' E 028°39'1 2.8
2017-Dec-09 16:00N 44°09' E 028°39'0 0.0
2017-Dec-09 15:30N 44°09' E 028°39'0 0.0
2017-Dec-09 15:00N 44°09' E 028°39'0 0.0
2017-Dec-09 14:30N 44°09' E 028°39'0 0.0
2017-Dec-09 14:00N 44°09' E 028°39'0 0.0
2017-Dec-09 13:30N 44°09' E 028°39'0 0.0
2017-Dec-09 13:00N 44°09' E 028°39'0 0.3
2017-Dec-09 12:30N 44°09' E 028°39'0 0.0
2017-Dec-09 12:00N 44°09' E 028°39'0 0.0
2017-Dec-09 11:30N 44°09' E 028°39'0 0.0
2017-Dec-09 11:00N 44°09' E 028°39'0 0.0
2017-Dec-09 10:30N 44°09' E 028°39'0 0.3
2017-Dec-09 10:00N 44°09' E 028°39'0 0.0
2017-Dec-09 09:30N 44°09' E 028°39'0 0.0
2017-Dec-09 09:00N 44°09' E 028°39'0 0.0
2017-Dec-09 08:30N 44°09' E 028°39'0 0.0
2017-Dec-09 08:00N 44°09' E 028°39'0 0.0
2017-Dec-09 07:30N 44°09' E 028°39'0 0.0
2017-Dec-09 07:00N 44°09' E 028°39'0 0.0
2017-Dec-09 06:30N 44°09' E 028°39'0 0.0
2017-Dec-09 06:00N 44°09' E 028°39'0 0.0
2017-Dec-09 05:30N 44°09' E 028°39'0 0.0
2017-Dec-09 05:00N 44°09' E 028°39'0 0.0
2017-Dec-09 04:30N 44°09' E 028°39'0 0.3
2017-Dec-09 04:00N 44°09' E 028°39'0 0.3
2017-Dec-09 03:30N 44°09' E 028°39'2 3.6
2017-Dec-09 03:00N 44°08' E 028°39'1 1.7
2017-Dec-09 02:30N 44°08' E 028°39'1 2.3
2017-Dec-09 02:00N 44°09' E 028°39'0 0.0
2017-Dec-09 01:30N 44°09' E 028°39'0 0.0
2017-Dec-09 01:00N 44°09' E 028°39'0 0.0
2017-Dec-09 00:30N 44°09' E 028°39'0 0.0
2017-Dec-09 00:00N 44°09' E 028°39'0 0.0
2017-Dec-08 23:30N 44°09' E 028°39'0 0.0
2017-Dec-08 23:00N 44°09' E 028°39'0 0.0
2017-Dec-08 22:30N 44°09' E 028°39'0 0.0
2017-Dec-08 22:00N 44°09' E 028°39'0 0.0
2017-Dec-08 21:30N 44°09' E 028°39'0 0.3
2017-Dec-08 21:00N 44°09' E 028°39'0 0.0
2017-Dec-08 20:30N 44°09' E 028°39'0 0.3
2017-Dec-08 20:00N 44°09' E 028°39'0 0.0
2017-Dec-08 19:30N 44°09' E 028°39'0 0.0
2017-Dec-08 19:00N 44°09' E 028°39'0 0.7
2017-Dec-08 18:30N 44°09' E 028°40'2 4.3
2017-Dec-08 18:00N 44°07' E 028°39'1 1.1
2017-Dec-08 17:30N 44°08' E 028°39'2 3.3
2017-Dec-08 17:00N 44°09' E 028°39'1 2.0
2017-Dec-08 16:30N 44°09' E 028°40'2 3.3
2017-Dec-08 16:00N 44°07' E 028°39'2 4.5
2017-Dec-08 15:30N 44°09' E 028°39'0 0.6
2017-Dec-08 15:00N 44°09' E 028°39'0 0.1
2017-Dec-08 14:30N 44°09' E 028°39'0 0.0
2017-Dec-08 14:00N 44°09' E 028°39'0 0.0
2017-Dec-08 13:30N 44°09' E 028°39'0 0.0
2017-Dec-08 13:00N 44°09' E 028°39'0 0.0
2017-Dec-08 12:30N 44°09' E 028°39'0 0.0
2017-Dec-08 12:00N 44°09' E 028°39'0 0.1
2017-Dec-08 11:30N 44°09' E 028°39'1 2.0
2017-Dec-08 11:01N 44°09' E 028°40'2 3.2
2017-Dec-08 10:30N 44°07' E 028°39'0 0.0
2017-Dec-08 10:00N 44°07' E 028°39'0 0.0
2017-Dec-08 09:30N 44°07' E 028°39'0 0.0
2017-Dec-08 09:00N 44°07' E 028°39'0 0.0
2017-Dec-08 08:31N 44°07' E 028°39'0 0.0
2017-Dec-08 08:00N 44°07' E 028°39'0 0.0
2017-Dec-08 07:31N 44°07' E 028°39'0 0.0
2017-Dec-08 07:01N 44°07' E 028°39'0 0.2
2017-Dec-08 06:31N 44°07' E 028°39'0 0.1
2017-Dec-08 06:00N 44°07' E 028°39'0 0.4
2017-Dec-08 05:31N 44°07' E 028°39'1 2.9
2017-Dec-08 05:01N 44°06' E 028°38'1 1.4
2017-Dec-08 04:31N 44°06' E 028°37'1 1.3
2017-Dec-08 04:00N 44°06' E 028°36'3 5.4
2017-Dec-08 03:30N 44°06' E 028°32'6 4.6
2017-Dec-08 02:13N 44°09' E 028°26'1 5.4
2017-Dec-08 02:00N 44°10' E 028°25'3 5.2
2017-Dec-08 01:30N 44°13' E 028°23'3 5.4
2017-Dec-08 01:00N 44°15' E 028°21'3 5.4
2017-Dec-08 00:30N 44°15' E 028°17'3 5.4
2017-Dec-08 00:00N 44°15' E 028°14'3 5.2
2017-Dec-07 23:31N 44°16' E 028°10'3 5.4
2017-Dec-07 23:01N 44°16' E 028°06'  
2017-Dec-04 10:24N 44°09' E 028°39'0 0.0
2017-Dec-04 09:53N 44°09' E 028°39'0 0.0
2017-Dec-04 09:30N 44°09' E 028°39'0 0.0
2017-Dec-04 09:00N 44°09' E 028°39'0 0.0
2017-Dec-04 08:29N 44°09' E 028°39'0 0.0
2017-Dec-04 07:59N 44°09' E 028°39'0 0.0
2017-Dec-04 07:28N 44°09' E 028°39'0 0.0
2017-Dec-04 07:00N 44°09' E 028°39'0 0.0
2017-Dec-04 06:27N 44°09' E 028°39'0 0.0
2017-Dec-04 05:58N 44°09' E 028°39'0 0.0
2017-Dec-04 05:29N 44°09' E 028°39'0 0.0
2017-Dec-04 04:58N 44°09' E 028°39'0 0.0
2017-Dec-04 04:29N 44°09' E 028°39'0 0.0
2017-Dec-04 03:59N 44°09' E 028°39'0 0.0
2017-Dec-04 03:30N 44°09' E 028°39'0 0.0
2017-Dec-04 02:56N 44°09' E 028°39'0 0.0
2017-Dec-04 02:29N 44°09' E 028°39'0 0.0
2017-Dec-04 01:56N 44°09' E 028°39'0 0.0
2017-Dec-04 01:30N 44°09' E 028°39'0 0.0
2017-Dec-04 00:58N 44°09' E 028°39'0 0.0
2017-Dec-04 00:30N 44°09' E 028°39'0 0.0
2017-Dec-04 00:00N 44°09' E 028°39'0 0.0
2017-Dec-03 23:30N 44°09' E 028°39'0 0.0
2017-Dec-03 22:55N 44°09' E 028°39'0 0.0
2017-Dec-03 22:28N 44°09' E 028°39'0 0.0
2017-Dec-03 21:59N 44°09' E 028°39'0 0.0
2017-Dec-03 21:30N 44°09' E 028°39'0 0.0
2017-Dec-03 20:59N 44°09' E 028°39'0 0.0
2017-Dec-03 20:29N 44°09' E 028°39'0 0.0
2017-Dec-03 19:59N 44°09' E 028°39'0 0.0
2017-Dec-03 19:29N 44°09' E 028°39'0 0.0
2017-Dec-03 18:53N 44°09' E 028°39'0 0.0
2017-Dec-03 18:29N 44°09' E 028°39'0 0.0
2017-Dec-03 17:58N 44°09' E 028°39'0 0.0
2017-Dec-03 17:30N 44°09' E 028°39'0 0.0
2017-Dec-03 16:53N 44°09' E 028°39'0 0.0
2017-Dec-03 16:29N 44°09' E 028°39'0 0.0
2017-Dec-03 16:00N 44°09' E 028°39'0 0.0
2017-Dec-03 15:30N 44°09' E 028°39'0 0.0
2017-Dec-03 14:53N 44°09' E 028°39'0 0.0
2017-Dec-03 14:29N 44°09' E 028°39'0 0.0
2017-Dec-03 13:58N 44°09' E 028°39'0 0.0
2017-Dec-03 13:30N 44°09' E 028°39'0 0.0
2017-Dec-03 13:00N 44°09' E 028°39'0 0.5
2017-Dec-03 12:30N 44°09' E 028°40'2 4.2
2017-Dec-03 12:00N 44°07' E 028°39'0 0.0
2017-Dec-03 11:29N 44°07' E 028°39'0 0.0
2017-Dec-03 10:59N 44°07' E 028°39'0 0.0
2017-Dec-03 10:30N 44°07' E 028°39'0 0.0
2017-Dec-03 10:00N 44°07' E 028°39'0 0.0
2017-Dec-03 09:31N 44°07' E 028°39'2 3.7
2017-Dec-03 08:58N 44°09' E 028°39'0 0.0
2017-Dec-03 08:30N 44°09' E 028°39'0 0.0
2017-Dec-03 07:59N 44°09' E 028°39'0 0.0
2017-Dec-03 07:28N 44°09' E 028°39'0 0.0
2017-Dec-03 06:59N 44°09' E 028°39'0 0.0
2017-Dec-03 06:28N 44°09' E 028°39'0 0.0
2017-Dec-03 05:58N 44°09' E 028°39'0 0.0
2017-Dec-03 05:29N 44°09' E 028°39'0 0.0
2017-Dec-03 05:00N 44°09' E 028°39'0 0.0
2017-Dec-03 04:28N 44°09' E 028°39'0 0.0
2017-Dec-03 03:59N 44°09' E 028°39'0 0.0
2017-Dec-03 03:30N 44°09' E 028°39'0 0.0
2017-Dec-03 02:59N 44°09' E 028°39'0 0.0
2017-Dec-03 02:28N 44°09' E 028°39'0 0.0
2017-Dec-03 01:56N 44°09' E 028°39'0 0.0
2017-Dec-03 01:30N 44°09' E 028°39'0 0.0
2017-Dec-03 01:00N 44°09' E 028°39'0 0.0
2017-Dec-03 00:28N 44°09' E 028°39'0 0.0
2017-Dec-03 00:00N 44°09' E 028°39'0 0.0
2017-Dec-02 23:24N 44°09' E 028°39'0 0.0
2017-Dec-02 22:53N 44°09' E 028°39'0 0.0
2017-Dec-02 22:28N 44°09' E 028°39'0 0.0
2017-Dec-02 21:54N 44°09' E 028°39'0 0.0
2017-Dec-02 21:27N 44°09' E 028°39'0 0.0
2017-Dec-02 20:58N 44°09' E 028°39'0 0.0
2017-Dec-02 20:30N 44°09' E 028°39'0 0.0
2017-Dec-02 19:58N 44°09' E 028°39'0 0.0
2017-Dec-02 19:30N 44°09' E 028°39'0 0.0
2017-Dec-02 18:53N 44°09' E 028°39'0 0.0
2017-Dec-02 18:30N 44°09' E 028°39'0 0.0
2017-Dec-02 17:58N 44°09' E 028°39'0 0.0
2017-Dec-02 17:30N 44°09' E 028°39'0 0.0
2017-Dec-02 16:53N 44°09' E 028°39'0 0.0
2017-Dec-02 16:28N 44°09' E 028°39'0 0.0
2017-Dec-02 16:00N 44°09' E 028°39'0 0.0
2017-Dec-02 15:28N 44°09' E 028°39'0 0.0
2017-Dec-02 15:00N 44°09' E 028°39'0 0.0
2017-Dec-02 14:28N 44°09' E 028°39'0 0.0
2017-Dec-02 14:00N 44°09' E 028°39'0 0.0
2017-Dec-02 13:30N 44°09' E 028°39'0 0.0
2017-Dec-02 12:58N 44°09' E 028°39'0 0.0
2017-Dec-02 12:30N 44°09' E 028°39'0 0.0
2017-Dec-02 11:59N 44°09' E 028°39'0 0.0
2017-Dec-02 11:25N 44°09' E 028°39'0 0.0
2017-Dec-02 10:59N 44°09' E 028°39'0 0.0
2017-Dec-02 10:23N 44°09' E 028°39'0 0.0
2017-Dec-02 10:00N 44°09' E 028°39'0 0.0
2017-Dec-02 09:25N 44°09' E 028°39'0 0.1
2017-Dec-02 08:58N 44°09' E 028°39'0 0.0
2017-Dec-02 08:30N 44°09' E 028°39'0 0.0
2017-Dec-02 07:59N 44°09' E 028°39'0 0.0
2017-Dec-02 07:27N 44°09' E 028°39'0 0.0
2017-Dec-02 07:00N 44°09' E 028°39'0 0.0
2017-Dec-02 06:28N 44°09' E 028°39'0 0.0
2017-Dec-02 05:58N 44°09' E 028°39'0 0.0
2017-Dec-02 05:24N 44°09' E 028°39'0 0.0
2017-Dec-02 04:56N 44°09' E 028°39'0 0.0
2017-Dec-02 04:28N 44°09' E 028°39'0 0.0
2017-Dec-02 03:58N 44°09' E 028°39'0 0.0
2017-Dec-02 03:24N 44°09' E 028°39'0 0.0
2017-Dec-02 03:00N 44°09' E 028°39'0 0.0
2017-Dec-02 02:28N 44°09' E 028°39'0 0.0
2017-Dec-02 01:59N 44°09' E 028°39'0 0.0
2017-Dec-02 01:27N 44°09' E 028°39'0 0.0
2017-Dec-02 00:57N 44°09' E 028°39'0 0.0
2017-Dec-02 00:29N 44°09' E 028°39'0 0.0
2017-Dec-01 23:57N 44°09' E 028°39'0 0.0
2017-Dec-01 23:29N 44°09' E 028°39'0 0.0
2017-Dec-01 22:59N 44°09' E 028°39'0 0.0
2017-Dec-01 22:30N 44°09' E 028°39'0 0.0
2017-Dec-01 22:00N 44°09' E 028°39'0 0.0
2017-Dec-01 21:30N 44°09' E 028°39'0 0.0
2017-Dec-01 20:59N 44°09' E 028°39'0 0.0
2017-Dec-01 20:29N 44°09' E 028°39'0 0.0
2017-Dec-01 19:58N 44°09' E 028°39'0 0.0
2017-Dec-01 19:30N 44°09' E 028°39'0 0.0
2017-Dec-01 18:54N 44°09' E 028°39'0 0.0
2017-Dec-01 18:28N 44°09' E 028°39'0 0.0
2017-Dec-01 17:58N 44°09' E 028°39'0 0.0
2017-Dec-01 17:29N 44°09' E 028°39'0 0.0
2017-Dec-01 16:59N 44°09' E 028°39'0 0.0
2017-Dec-01 16:29N 44°09' E 028°39'0 0.0
2017-Dec-01 16:00N 44°09' E 028°39'0 0.0
2017-Dec-01 15:28N 44°09' E 028°39'0 0.0
2017-Dec-01 14:54N 44°09' E 028°39'0 0.0
2017-Dec-01 14:29N 44°09' E 028°39'0 0.0
2017-Dec-01 13:59N 44°09' E 028°39'0 0.0
2017-Dec-01 13:30N 44°09' E 028°39'0 0.0
2017-Dec-01 12:58N 44°09' E 028°39'0 0.0
2017-Dec-01 12:30N 44°09' E 028°39'0 0.0
2017-Dec-01 11:58N 44°09' E 028°39'0 0.0
2017-Dec-01 11:30N 44°09' E 028°39'0 0.0
2017-Dec-01 10:59N 44°09' E 028°39'1 1.5
2017-Dec-01 10:31N 44°09' E 028°40'2 3.4
2017-Dec-01 09:59N 44°07' E 028°39'0 0.0
2017-Dec-01 09:30N 44°07' E 028°39'0 0.0
2017-Dec-01 09:00N 44°07' E 028°39'0 0.0
2017-Dec-01 08:28N 44°07' E 028°39'0 0.0
2017-Dec-01 08:00N 44°07' E 028°39'0 0.0
2017-Dec-01 07:29N 44°07' E 028°39'0 0.0
2017-Dec-01 06:58N 44°07' E 028°39'0 0.0
2017-Dec-01 06:29N 44°07' E 028°39'0 0.0
2017-Dec-01 05:58N 44°07' E 028°39'0 0.0
2017-Dec-01 05:30N 44°07' E 028°39'0 0.0
2017-Dec-01 04:59N 44°07' E 028°39'0 0.0
2017-Dec-01 04:29N 44°07' E 028°39'0 0.0
2017-Dec-01 04:00N 44°07' E 028°39'0 0.0
2017-Dec-01 03:30N 44°07' E 028°39'0 0.0
2017-Dec-01 02:58N 44°07' E 028°39'0 0.0
2017-Dec-01 02:29N 44°07' E 028°39'0 0.0
2017-Dec-01 02:00N 44°07' E 028°39'0 0.0
2017-Dec-01 01:25N 44°07' E 028°39'0 0.0
2017-Dec-01 01:00N 44°07' E 028°39'0 0.0
2017-Dec-01 00:30N 44°07' E 028°39'0 0.0
2017-Nov-30 23:59N 44°07' E 028°39'0 0.0
2017-Nov-30 23:29N 44°07' E 028°39'0 0.0
2017-Nov-30 22:54N 44°07' E 028°39'0 0.0
2017-Nov-30 22:30N 44°07' E 028°39'0 0.0
2017-Nov-30 22:00N 44°07' E 028°39'0 0.0
2017-Nov-30 21:24N 44°07' E 028°39'0 0.0
2017-Nov-30 21:00N 44°07' E 028°39'0 0.0
2017-Nov-30 20:30N 44°07' E 028°39'0 0.0
2017-Nov-30 20:00N 44°07' E 028°39'0 0.0
2017-Nov-30 19:28N 44°07' E 028°39'0 0.0
2017-Nov-30 18:59N 44°07' E 028°39'0 0.0
2017-Nov-30 18:29N 44°07' E 028°39'0 0.0
2017-Nov-30 17:58N 44°07' E 028°39'0 0.0
2017-Nov-30 17:30N 44°07' E 028°39'0 0.0
2017-Nov-30 16:58N 44°07' E 028°39'0 0.0
2017-Nov-30 16:28N 44°07' E 028°39'0 0.0
2017-Nov-30 16:00N 44°07' E 028°39'0 0.0
2017-Nov-30 15:30N 44°07' E 028°39'1 2.3
2017-Nov-30 15:00N 44°06' E 028°38'1 2.3
2017-Nov-30 14:30N 44°07' E 028°39'0 0.0
2017-Nov-30 13:59N 44°07' E 028°39'1 1.7
2017-Nov-30 13:30N 44°08' E 028°39'2 3.0
2017-Nov-30 12:59N 44°09' E 028°39'0 0.0
2017-Nov-30 12:30N 44°09' E 028°39'0 0.0
2017-Nov-30 12:00N 44°09' E 028°39'0 0.7
2017-Nov-30 11:28N 44°09' E 028°39'0 0.0
2017-Nov-30 10:58N 44°09' E 028°39'0 0.0
2017-Nov-30 10:28N 44°09' E 028°39'  

Dump ship's entire track history